sensor_id;sensor_type;location;lat;lon;timestamp;P1;durP1;ratioP1;P2;durP2;ratioP2
2720;SDS011;1368;49.484;11.112;2023-08-20T00:01:12;15.63;;;10.73;;
2720;SDS011;1368;49.484;11.112;2023-08-20T00:03:43;19.60;;;11.73;;
2720;SDS011;1368;49.484;11.112;2023-08-20T00:06:11;14.77;;;11.50;;
2720;SDS011;1368;49.484;11.112;2023-08-20T00:08:37;16.70;;;11.70;;
2720;SDS011;1368;49.484;11.112;2023-08-20T00:11:02;14.13;;;11.27;;
2720;SDS011;1368;49.484;11.112;2023-08-20T00:13:30;14.77;;;11.80;;
2720;SDS011;1368;49.484;11.112;2023-08-20T00:15:56;15.40;;;11.20;;
2720;SDS011;1368;49.484;11.112;2023-08-20T00:18:21;14.37;;;10.20;;
2720;SDS011;1368;49.484;11.112;2023-08-20T00:20:47;15.93;;;11.33;;
2720;SDS011;1368;49.484;11.112;2023-08-20T00:23:13;20.27;;;10.90;;
2720;SDS011;1368;49.484;11.112;2023-08-20T00:25:41;12.97;;;10.40;;
2720;SDS011;1368;49.484;11.112;2023-08-20T00:28:06;15.13;;;10.63;;
2720;SDS011;1368;49.484;11.112;2023-08-20T00:30:32;21.83;;;11.03;;
2720;SDS011;1368;49.484;11.112;2023-08-20T00:32:57;15.43;;;12.53;;
2720;SDS011;1368;49.484;11.112;2023-08-20T00:35:23;17.43;;;11.57;;
2720;SDS011;1368;49.484;11.112;2023-08-20T00:37:49;14.53;;;11.27;;
2720;SDS011;1368;49.484;11.112;2023-08-20T00:40:15;19.27;;;11.60;;
2720;SDS011;1368;49.484;11.112;2023-08-20T00:42:41;18.10;;;11.47;;
2720;SDS011;1368;49.484;11.112;2023-08-20T00:45:06;12.77;;;11.50;;
2720;SDS011;1368;49.484;11.112;2023-08-20T00:47:32;17.43;;;11.73;;
2720;SDS011;1368;49.484;11.112;2023-08-20T00:49:59;14.60;;;10.63;;
2720;SDS011;1368;49.484;11.112;2023-08-20T00:52:24;18.50;;;11.60;;
2720;SDS011;1368;49.484;11.112;2023-08-20T00:54:50;15.83;;;11.47;;
2720;SDS011;1368;49.484;11.112;2023-08-20T00:57:19;15.27;;;10.50;;
2720;SDS011;1368;49.484;11.112;2023-08-20T00:59:47;21.00;;;11.73;;
2720;SDS011;1368;49.484;11.112;2023-08-20T01:02:18;13.47;;;11.23;;
2720;SDS011;1368;49.484;11.112;2023-08-20T01:04:45;16.20;;;11.20;;
2720;SDS011;1368;49.484;11.112;2023-08-20T01:12:19;13.10;;;10.60;;
2720;SDS011;1368;49.484;11.112;2023-08-20T01:14:45;15.27;;;11.70;;
2720;SDS011;1368;49.484;11.112;2023-08-20T01:17:10;13.87;;;10.60;;
2720;SDS011;1368;49.484;11.112;2023-08-20T01:19:36;13.33;;;11.07;;
2720;SDS011;1368;49.484;11.112;2023-08-20T01:30:48;14.00;;;11.20;;
2720;SDS011;1368;49.484;11.112;2023-08-20T01:33:14;16.10;;;12.30;;
2720;SDS011;1368;49.484;11.112;2023-08-20T01:35:41;13.93;;;11.60;;
2720;SDS011;1368;49.484;11.112;2023-08-20T01:38:06;15.80;;;11.90;;
2720;SDS011;1368;49.484;11.112;2023-08-20T01:40:32;16.03;;;11.97;;
2720;SDS011;1368;49.484;11.112;2023-08-20T01:42:58;18.73;;;13.30;;
2720;SDS011;1368;49.484;11.112;2023-08-20T01:45:24;15.53;;;11.60;;
2720;SDS011;1368;49.484;11.112;2023-08-20T01:47:51;14.50;;;12.10;;
2720;SDS011;1368;49.484;11.112;2023-08-20T01:50:17;16.30;;;12.10;;
2720;SDS011;1368;49.484;11.112;2023-08-20T01:52:42;14.07;;;12.50;;
2720;SDS011;1368;49.484;11.112;2023-08-20T01:55:08;13.13;;;11.80;;
2720;SDS011;1368;49.484;11.112;2023-08-20T01:57:33;15.10;;;12.80;;
2720;SDS011;1368;49.484;11.112;2023-08-20T01:59:59;17.50;;;12.40;;
2720;SDS011;1368;49.484;11.112;2023-08-20T02:02:25;16.70;;;14.13;;
2720;SDS011;1368;49.484;11.112;2023-08-20T02:04:50;16.47;;;13.33;;
2720;SDS011;1368;49.484;11.112;2023-08-20T02:07:16;19.07;;;12.73;;
2720;SDS011;1368;49.484;11.112;2023-08-20T02:09:42;16.53;;;12.80;;
2720;SDS011;1368;49.484;11.112;2023-08-20T02:12:08;13.27;;;11.50;;
2720;SDS011;1368;49.484;11.112;2023-08-20T02:14:34;14.40;;;12.67;;
2720;SDS011;1368;49.484;11.112;2023-08-20T02:17:02;17.37;;;12.57;;
2720;SDS011;1368;49.484;11.112;2023-08-20T02:19:28;20.00;;;13.63;;
2720;SDS011;1368;49.484;11.112;2023-08-20T02:21:54;18.50;;;12.20;;
2720;SDS011;1368;49.484;11.112;2023-08-20T02:24:19;17.23;;;12.83;;
2720;SDS011;1368;49.484;11.112;2023-08-20T02:26:45;16.37;;;12.43;;
2720;SDS011;1368;49.484;11.112;2023-08-20T02:29:10;23.90;;;12.73;;
2720;SDS011;1368;49.484;11.112;2023-08-20T02:31:36;16.43;;;12.67;;
2720;SDS011;1368;49.484;11.112;2023-08-20T02:34:01;16.23;;;12.47;;
2720;SDS011;1368;49.484;11.112;2023-08-20T02:36:27;17.60;;;12.70;;
2720;SDS011;1368;49.484;11.112;2023-08-20T02:38:53;14.10;;;11.17;;
2720;SDS011;1368;49.484;11.112;2023-08-20T02:41:18;17.63;;;12.67;;
2720;SDS011;1368;49.484;11.112;2023-08-20T02:43:44;13.60;;;11.50;;
2720;SDS011;1368;49.484;11.112;2023-08-20T02:46:10;16.00;;;11.80;;
2720;SDS011;1368;49.484;11.112;2023-08-20T02:48:35;19.27;;;11.83;;
2720;SDS011;1368;49.484;11.112;2023-08-20T02:51:01;20.80;;;12.90;;
2720;SDS011;1368;49.484;11.112;2023-08-20T02:53:27;16.33;;;13.43;;
2720;SDS011;1368;49.484;11.112;2023-08-20T02:55:53;21.20;;;13.73;;
2720;SDS011;1368;49.484;11.112;2023-08-20T02:58:19;16.10;;;12.33;;
2720;SDS011;1368;49.484;11.112;2023-08-20T03:00:45;14.90;;;12.57;;
2720;SDS011;1368;49.484;11.112;2023-08-20T03:03:11;19.23;;;13.67;;
2720;SDS011;1368;49.484;11.112;2023-08-20T03:05:37;18.47;;;13.47;;
2720;SDS011;1368;49.484;11.112;2023-08-20T03:08:02;15.67;;;13.93;;
2720;SDS011;1368;49.484;11.112;2023-08-20T03:10:29;18.53;;;13.40;;
2720;SDS011;1368;49.484;11.112;2023-08-20T03:12:55;18.33;;;13.80;;
2720;SDS011;1368;49.484;11.112;2023-08-20T03:15:21;19.80;;;13.90;;
2720;SDS011;1368;49.484;11.112;2023-08-20T03:17:46;15.60;;;13.33;;
2720;SDS011;1368;49.484;11.112;2023-08-20T03:20:12;14.53;;;12.07;;
2720;SDS011;1368;49.484;11.112;2023-08-20T03:22:37;14.83;;;13.00;;
2720;SDS011;1368;49.484;11.112;2023-08-20T03:25:03;14.50;;;12.73;;
2720;SDS011;1368;49.484;11.112;2023-08-20T03:27:29;15.00;;;12.50;;
2720;SDS011;1368;49.484;11.112;2023-08-20T03:29:55;17.83;;;12.57;;
2720;SDS011;1368;49.484;11.112;2023-08-20T03:32:21;15.33;;;13.80;;
2720;SDS011;1368;49.484;11.112;2023-08-20T03:34:48;15.70;;;14.07;;
2720;SDS011;1368;49.484;11.112;2023-08-20T03:37:14;17.73;;;14.00;;
2720;SDS011;1368;49.484;11.112;2023-08-20T03:39:40;16.43;;;14.30;;
2720;SDS011;1368;49.484;11.112;2023-08-20T03:42:05;14.90;;;13.07;;
2720;SDS011;1368;49.484;11.112;2023-08-20T03:44:31;15.90;;;14.23;;
2720;SDS011;1368;49.484;11.112;2023-08-20T03:46:56;14.43;;;13.03;;
2720;SDS011;1368;49.484;11.112;2023-08-20T03:49:22;18.80;;;14.13;;
2720;SDS011;1368;49.484;11.112;2023-08-20T03:51:48;18.13;;;14.50;;
2720;SDS011;1368;49.484;11.112;2023-08-20T03:54:13;20.87;;;14.00;;
2720;SDS011;1368;49.484;11.112;2023-08-20T03:56:39;17.53;;;15.53;;
2720;SDS011;1368;49.484;11.112;2023-08-20T03:59:05;20.97;;;13.57;;
2720;SDS011;1368;49.484;11.112;2023-08-20T04:01:31;15.03;;;13.23;;
2720;SDS011;1368;49.484;11.112;2023-08-20T04:03:56;22.40;;;14.37;;
2720;SDS011;1368;49.484;11.112;2023-08-20T04:06:22;16.03;;;13.77;;
2720;SDS011;1368;49.484;11.112;2023-08-20T04:08:47;17.63;;;13.40;;
2720;SDS011;1368;49.484;11.112;2023-08-20T04:11:13;15.90;;;14.23;;
2720;SDS011;1368;49.484;11.112;2023-08-20T04:13:39;17.40;;;14.10;;
2720;SDS011;1368;49.484;11.112;2023-08-20T04:16:07;16.07;;;13.40;;
2720;SDS011;1368;49.484;11.112;2023-08-20T04:18:33;14.07;;;12.53;;
2720;SDS011;1368;49.484;11.112;2023-08-20T04:20:59;16.33;;;13.47;;
2720;SDS011;1368;49.484;11.112;2023-08-20T04:23:24;16.40;;;14.17;;
2720;SDS011;1368;49.484;11.112;2023-08-20T04:25:50;16.10;;;13.97;;
2720;SDS011;1368;49.484;11.112;2023-08-20T04:28:15;20.03;;;14.80;;
2720;SDS011;1368;49.484;11.112;2023-08-20T04:30:41;25.10;;;15.20;;
2720;SDS011;1368;49.484;11.112;2023-08-20T04:33:07;17.23;;;14.43;;
2720;SDS011;1368;49.484;11.112;2023-08-20T04:35:33;24.23;;;14.90;;
2720;SDS011;1368;49.484;11.112;2023-08-20T04:37:58;18.83;;;15.33;;
2720;SDS011;1368;49.484;11.112;2023-08-20T04:40:24;18.47;;;13.40;;
2720;SDS011;1368;49.484;11.112;2023-08-20T04:42:50;17.27;;;14.20;;
2720;SDS011;1368;49.484;11.112;2023-08-20T04:45:16;17.13;;;14.50;;
2720;SDS011;1368;49.484;11.112;2023-08-20T04:47:44;17.57;;;13.70;;
2720;SDS011;1368;49.484;11.112;2023-08-20T04:50:12;19.23;;;15.10;;
2720;SDS011;1368;49.484;11.112;2023-08-20T04:52:38;17.33;;;14.43;;
2720;SDS011;1368;49.484;11.112;2023-08-20T04:55:05;14.93;;;13.17;;
2720;SDS011;1368;49.484;11.112;2023-08-20T04:57:33;17.57;;;12.97;;
2720;SDS011;1368;49.484;11.112;2023-08-20T04:59:59;17.33;;;12.60;;
2720;SDS011;1368;49.484;11.112;2023-08-20T05:02:24;16.63;;;12.73;;
2720;SDS011;1368;49.484;11.112;2023-08-20T05:04:50;15.67;;;12.20;;
2720;SDS011;1368;49.484;11.112;2023-08-20T05:07:16;15.53;;;12.20;;
2720;SDS011;1368;49.484;11.112;2023-08-20T05:09:42;12.40;;;11.20;;
2720;SDS011;1368;49.484;11.112;2023-08-20T05:12:08;18.23;;;11.80;;
2720;SDS011;1368;49.484;11.112;2023-08-20T05:14:33;18.20;;;12.63;;
2720;SDS011;1368;49.484;11.112;2023-08-20T05:16:59;22.80;;;12.10;;
2720;SDS011;1368;49.484;11.112;2023-08-20T05:19:25;17.93;;;11.50;;
2720;SDS011;1368;49.484;11.112;2023-08-20T05:21:50;13.70;;;10.20;;
2720;SDS011;1368;49.484;11.112;2023-08-20T05:24:17;11.20;;;10.10;;
2720;SDS011;1368;49.484;11.112;2023-08-20T05:26:43;11.43;;;9.20;;
2720;SDS011;1368;49.484;11.112;2023-08-20T05:29:08;11.83;;;10.00;;
2720;SDS011;1368;49.484;11.112;2023-08-20T05:31:34;14.87;;;9.93;;
2720;SDS011;1368;49.484;11.112;2023-08-20T05:33:59;11.47;;;9.93;;
2720;SDS011;1368;49.484;11.112;2023-08-20T05:36:25;15.07;;;9.80;;
2720;SDS011;1368;49.484;11.112;2023-08-20T05:38:51;11.60;;;10.40;;
2720;SDS011;1368;49.484;11.112;2023-08-20T05:41:16;14.03;;;10.17;;
2720;SDS011;1368;49.484;11.112;2023-08-20T05:43:42;12.37;;;9.77;;
2720;SDS011;1368;49.484;11.112;2023-08-20T05:46:07;13.30;;;9.87;;
2720;SDS011;1368;49.484;11.112;2023-08-20T05:48:33;12.00;;;10.10;;
2720;SDS011;1368;49.484;11.112;2023-08-20T05:50:58;10.83;;;9.50;;
2720;SDS011;1368;49.484;11.112;2023-08-20T05:53:24;9.40;;;8.50;;
2720;SDS011;1368;49.484;11.112;2023-08-20T05:55:50;10.60;;;9.50;;
2720;SDS011;1368;49.484;11.112;2023-08-20T05:58:15;12.93;;;9.90;;
2720;SDS011;1368;49.484;11.112;2023-08-20T06:00:41;14.03;;;10.00;;
2720;SDS011;1368;49.484;11.112;2023-08-20T06:03:07;12.40;;;10.23;;
2720;SDS011;1368;49.484;11.112;2023-08-20T06:05:33;13.33;;;9.70;;
2720;SDS011;1368;49.484;11.112;2023-08-20T06:07:59;11.90;;;10.40;;
2720;SDS011;1368;49.484;11.112;2023-08-20T06:10:24;16.23;;;10.27;;
2720;SDS011;1368;49.484;11.112;2023-08-20T06:12:50;10.77;;;9.77;;
2720;SDS011;1368;49.484;11.112;2023-08-20T06:15:16;12.27;;;10.97;;
2720;SDS011;1368;49.484;11.112;2023-08-20T06:17:41;12.10;;;11.00;;
2720;SDS011;1368;49.484;11.112;2023-08-20T06:20:07;11.27;;;9.83;;
2720;SDS011;1368;49.484;11.112;2023-08-20T06:22:33;13.73;;;10.40;;
2720;SDS011;1368;49.484;11.112;2023-08-20T06:24:59;11.73;;;10.37;;
2720;SDS011;1368;49.484;11.112;2023-08-20T06:27:25;12.23;;;10.30;;
2720;SDS011;1368;49.484;11.112;2023-08-20T06:29:50;13.67;;;10.33;;
2720;SDS011;1368;49.484;11.112;2023-08-20T06:32:16;11.40;;;10.30;;
2720;SDS011;1368;49.484;11.112;2023-08-20T06:34:42;10.53;;;9.57;;
2720;SDS011;1368;49.484;11.112;2023-08-20T06:37:07;14.23;;;10.60;;
2720;SDS011;1368;49.484;11.112;2023-08-20T06:39:33;11.17;;;9.97;;
2720;SDS011;1368;49.484;11.112;2023-08-20T06:41:58;14.20;;;10.73;;
2720;SDS011;1368;49.484;11.112;2023-08-20T06:44:24;12.23;;;10.33;;
2720;SDS011;1368;49.484;11.112;2023-08-20T06:46:50;10.00;;;9.03;;
2720;SDS011;1368;49.484;11.112;2023-08-20T06:49:15;10.40;;;9.40;;
2720;SDS011;1368;49.484;11.112;2023-08-20T06:51:41;11.40;;;10.03;;
2720;SDS011;1368;49.484;11.112;2023-08-20T06:54:06;13.93;;;10.77;;
2720;SDS011;1368;49.484;11.112;2023-08-20T06:56:32;12.80;;;10.33;;
2720;SDS011;1368;49.484;11.112;2023-08-20T06:58:58;11.37;;;10.13;;
2720;SDS011;1368;49.484;11.112;2023-08-20T07:01:25;17.40;;;10.70;;
2720;SDS011;1368;49.484;11.112;2023-08-20T07:03:50;11.93;;;10.77;;
2720;SDS011;1368;49.484;11.112;2023-08-20T07:06:16;13.73;;;11.47;;
2720;SDS011;1368;49.484;11.112;2023-08-20T07:08:43;12.17;;;11.00;;
2720;SDS011;1368;49.484;11.112;2023-08-20T07:11:09;11.30;;;9.80;;
2720;SDS011;1368;49.484;11.112;2023-08-20T07:13:35;11.13;;;10.00;;
2720;SDS011;1368;49.484;11.112;2023-08-20T07:16:01;11.10;;;9.87;;
2720;SDS011;1368;49.484;11.112;2023-08-20T07:18:27;10.50;;;9.00;;
2720;SDS011;1368;49.484;11.112;2023-08-20T07:20:54;12.40;;;10.57;;
2720;SDS011;1368;49.484;11.112;2023-08-20T07:23:20;11.00;;;9.93;;
2720;SDS011;1368;49.484;11.112;2023-08-20T07:25:46;17.53;;;10.53;;
2720;SDS011;1368;49.484;11.112;2023-08-20T07:28:12;10.47;;;9.43;;
2720;SDS011;1368;49.484;11.112;2023-08-20T07:30:37;14.10;;;9.30;;
2720;SDS011;1368;49.484;11.112;2023-08-20T07:33:03;10.43;;;9.43;;
2720;SDS011;1368;49.484;11.112;2023-08-20T07:35:31;13.63;;;10.30;;
2720;SDS011;1368;49.484;11.112;2023-08-20T07:37:56;11.37;;;10.30;;
2720;SDS011;1368;49.484;11.112;2023-08-20T07:40:22;10.10;;;9.03;;
2720;SDS011;1368;49.484;11.112;2023-08-20T07:42:47;10.03;;;9.00;;
2720;SDS011;1368;49.484;11.112;2023-08-20T07:45:15;9.73;;;8.77;;
2720;SDS011;1368;49.484;11.112;2023-08-20T07:47:40;17.83;;;9.33;;
2720;SDS011;1368;49.484;11.112;2023-08-20T07:50:06;10.83;;;9.80;;
2720;SDS011;1368;49.484;11.112;2023-08-20T07:52:32;13.50;;;9.60;;
2720;SDS011;1368;49.484;11.112;2023-08-20T07:54:58;11.10;;;8.87;;
2720;SDS011;1368;49.484;11.112;2023-08-20T07:57:23;10.33;;;9.33;;
2720;SDS011;1368;49.484;11.112;2023-08-20T07:59:49;10.00;;;8.87;;
2720;SDS011;1368;49.484;11.112;2023-08-20T08:02:16;12.40;;;9.50;;
2720;SDS011;1368;49.484;11.112;2023-08-20T08:04:41;11.17;;;9.00;;
2720;SDS011;1368;49.484;11.112;2023-08-20T08:07:08;12.20;;;8.60;;
2720;SDS011;1368;49.484;11.112;2023-08-20T08:09:34;8.77;;;7.97;;
2720;SDS011;1368;49.484;11.112;2023-08-20T08:12:00;9.50;;;8.67;;
2720;SDS011;1368;49.484;11.112;2023-08-20T08:14:26;10.00;;;8.90;;
2720;SDS011;1368;49.484;11.112;2023-08-20T08:16:51;9.80;;;8.77;;
2720;SDS011;1368;49.484;11.112;2023-08-20T08:19:17;11.70;;;8.50;;
2720;SDS011;1368;49.484;11.112;2023-08-20T08:21:43;10.77;;;8.40;;
2720;SDS011;1368;49.484;11.112;2023-08-20T08:24:12;11.83;;;9.20;;
2720;SDS011;1368;49.484;11.112;2023-08-20T08:26:39;10.50;;;8.40;;
2720;SDS011;1368;49.484;11.112;2023-08-20T08:29:05;9.77;;;8.77;;
2720;SDS011;1368;49.484;11.112;2023-08-20T08:31:32;10.87;;;9.27;;
2720;SDS011;1368;49.484;11.112;2023-08-20T08:33:58;12.13;;;8.70;;
2720;SDS011;1368;49.484;11.112;2023-08-20T08:36:23;12.30;;;9.10;;
2720;SDS011;1368;49.484;11.112;2023-08-20T08:38:52;9.27;;;8.23;;
2720;SDS011;1368;49.484;11.112;2023-08-20T08:41:20;9.20;;;7.97;;
2720;SDS011;1368;49.484;11.112;2023-08-20T08:43:48;11.73;;;8.40;;
2720;SDS011;1368;49.484;11.112;2023-08-20T08:46:14;7.97;;;7.23;;
2720;SDS011;1368;49.484;11.112;2023-08-20T08:48:41;9.30;;;8.40;;
2720;SDS011;1368;49.484;11.112;2023-08-20T08:51:08;11.93;;;8.93;;
2720;SDS011;1368;49.484;11.112;2023-08-20T08:53:34;10.73;;;9.30;;
2720;SDS011;1368;49.484;11.112;2023-08-20T08:56:00;8.60;;;7.70;;
2720;SDS011;1368;49.484;11.112;2023-08-20T08:58:27;8.70;;;7.80;;
2720;SDS011;1368;49.484;11.112;2023-08-20T09:00:53;9.27;;;7.40;;
2720;SDS011;1368;49.484;11.112;2023-08-20T09:03:19;12.53;;;8.00;;
2720;SDS011;1368;49.484;11.112;2023-08-20T09:05:45;11.53;;;8.07;;
2720;SDS011;1368;49.484;11.112;2023-08-20T09:08:21;9.50;;;8.60;;
2720;SDS011;1368;49.484;11.112;2023-08-20T09:10:51;9.97;;;8.93;;
2720;SDS011;1368;49.484;11.112;2023-08-20T09:13:22;9.50;;;7.80;;
2720;SDS011;1368;49.484;11.112;2023-08-20T09:15:57;12.30;;;8.33;;
2720;SDS011;1368;49.484;11.112;2023-08-20T09:18:23;12.50;;;7.90;;
2720;SDS011;1368;49.484;11.112;2023-08-20T09:20:49;8.07;;;7.23;;
2720;SDS011;1368;49.484;11.112;2023-08-20T09:23:15;11.30;;;7.87;;
2720;SDS011;1368;49.484;11.112;2023-08-20T09:25:41;13.13;;;8.67;;
2720;SDS011;1368;49.484;11.112;2023-08-20T09:28:07;10.37;;;8.13;;
2720;SDS011;1368;49.484;11.112;2023-08-20T09:30:33;10.50;;;8.43;;
2720;SDS011;1368;49.484;11.112;2023-08-20T09:33:32;11.00;;;7.80;;
2720;SDS011;1368;49.484;11.112;2023-08-20T09:35:51;10.20;;;7.87;;
2720;SDS011;1368;49.484;11.112;2023-08-20T09:38:19;10.60;;;7.00;;
2720;SDS011;1368;49.484;11.112;2023-08-20T09:40:49;12.13;;;7.70;;
2720;SDS011;1368;49.484;11.112;2023-08-20T09:43:17;9.73;;;7.37;;
2720;SDS011;1368;49.484;11.112;2023-08-20T09:45:43;13.17;;;8.33;;
2720;SDS011;1368;49.484;11.112;2023-08-20T09:48:11;9.40;;;8.20;;
2720;SDS011;1368;49.484;11.112;2023-08-20T09:50:38;11.40;;;7.90;;
2720;SDS011;1368;49.484;11.112;2023-08-20T09:56:03;12.80;;;9.40;;
2720;SDS011;1368;49.484;11.112;2023-08-20T09:58:45;10.10;;;8.53;;
2720;SDS011;1368;49.484;11.112;2023-08-20T10:01:13;11.57;;;8.70;;
2720;SDS011;1368;49.484;11.112;2023-08-20T10:03:39;16.47;;;8.50;;
2720;SDS011;1368;49.484;11.112;2023-08-20T10:06:07;12.10;;;9.07;;
2720;SDS011;1368;49.484;11.112;2023-08-20T10:08:34;11.17;;;8.10;;
2720;SDS011;1368;49.484;11.112;2023-08-20T10:11:00;13.73;;;8.90;;
2720;SDS011;1368;49.484;11.112;2023-08-20T10:13:25;10.70;;;7.03;;
2720;SDS011;1368;49.484;11.112;2023-08-20T10:15:52;9.67;;;7.90;;
2720;SDS011;1368;49.484;11.112;2023-08-20T10:18:20;11.90;;;8.37;;
2720;SDS011;1368;49.484;11.112;2023-08-20T10:20:49;7.77;;;6.43;;
2720;SDS011;1368;49.484;11.112;2023-08-20T10:23:15;8.17;;;7.27;;
2720;SDS011;1368;49.484;11.112;2023-08-20T10:25:46;15.60;;;6.67;;
2720;SDS011;1368;49.484;11.112;2023-08-20T10:28:21;10.60;;;6.20;;
2720;SDS011;1368;49.484;11.112;2023-08-20T10:33:38;10.80;;;7.30;;
2720;SDS011;1368;49.484;11.112;2023-08-20T10:36:20;12.57;;;6.37;;
2720;SDS011;1368;49.484;11.112;2023-08-20T10:38:49;8.50;;;6.73;;
2720;SDS011;1368;49.484;11.112;2023-08-20T10:41:15;13.47;;;6.80;;
2720;SDS011;1368;49.484;11.112;2023-08-20T10:43:48;9.77;;;5.77;;
2720;SDS011;1368;49.484;11.112;2023-08-20T10:46:18;9.77;;;6.70;;
2720;SDS011;1368;49.484;11.112;2023-08-20T10:48:49;10.23;;;6.07;;
2720;SDS011;1368;49.484;11.112;2023-08-20T10:51:36;10.90;;;6.67;;
2720;SDS011;1368;49.484;11.112;2023-08-20T10:54:08;7.07;;;6.20;;
2720;SDS011;1368;49.484;11.112;2023-08-20T10:56:40;9.50;;;7.00;;
2720;SDS011;1368;49.484;11.112;2023-08-20T10:59:07;6.90;;;6.20;;
2720;SDS011;1368;49.484;11.112;2023-08-20T11:01:46;10.47;;;6.57;;
2720;SDS011;1368;49.484;11.112;2023-08-20T11:04:15;8.40;;;6.00;;
2720;SDS011;1368;49.484;11.112;2023-08-20T11:06:41;7.43;;;6.00;;
2720;SDS011;1368;49.484;11.112;2023-08-20T11:09:07;11.23;;;6.70;;
2720;SDS011;1368;49.484;11.112;2023-08-20T11:11:33;13.77;;;6.57;;
2720;SDS011;1368;49.484;11.112;2023-08-20T11:14:05;10.60;;;6.40;;
2720;SDS011;1368;49.484;11.112;2023-08-20T11:16:32;7.27;;;6.17;;
2720;SDS011;1368;49.484;11.112;2023-08-20T11:18:58;7.17;;;6.10;;
2720;SDS011;1368;49.484;11.112;2023-08-20T11:21:23;11.90;;;7.00;;
2720;SDS011;1368;49.484;11.112;2023-08-20T11:23:49;9.20;;;6.80;;
2720;SDS011;1368;49.484;11.112;2023-08-20T11:26:14;10.87;;;6.27;;
2720;SDS011;1368;49.484;11.112;2023-08-20T11:28:44;10.13;;;6.70;;
2720;SDS011;1368;49.484;11.112;2023-08-20T11:31:11;8.43;;;7.40;;
2720;SDS011;1368;49.484;11.112;2023-08-20T11:33:37;8.77;;;6.80;;
2720;SDS011;1368;49.484;11.112;2023-08-20T11:36:03;14.60;;;7.73;;
2720;SDS011;1368;49.484;11.112;2023-08-20T11:38:30;9.30;;;7.53;;
2720;SDS011;1368;49.484;11.112;2023-08-20T11:40:57;8.80;;;6.87;;
2720;SDS011;1368;49.484;11.112;2023-08-20T11:43:24;11.90;;;6.60;;
2720;SDS011;1368;49.484;11.112;2023-08-20T11:45:52;10.03;;;7.80;;
2720;SDS011;1368;49.484;11.112;2023-08-20T11:48:19;9.40;;;6.90;;
2720;SDS011;1368;49.484;11.112;2023-08-20T11:50:46;9.40;;;6.30;;
2720;SDS011;1368;49.484;11.112;2023-08-20T11:53:12;11.27;;;6.70;;
2720;SDS011;1368;49.484;11.112;2023-08-20T11:55:40;11.17;;;6.00;;
2720;SDS011;1368;49.484;11.112;2023-08-20T11:58:13;8.20;;;6.20;;
2720;SDS011;1368;49.484;11.112;2023-08-20T12:00:39;8.20;;;6.97;;
2720;SDS011;1368;49.484;11.112;2023-08-20T12:03:05;9.87;;;6.47;;
2720;SDS011;1368;49.484;11.112;2023-08-20T12:05:32;14.63;;;6.23;;
2720;SDS011;1368;49.484;11.112;2023-08-20T12:07:59;8.43;;;6.43;;
2720;SDS011;1368;49.484;11.112;2023-08-20T12:10:27;8.07;;;6.03;;
2720;SDS011;1368;49.484;11.112;2023-08-20T12:12:54;12.83;;;7.83;;
2720;SDS011;1368;49.484;11.112;2023-08-20T12:15:23;10.50;;;7.20;;
2720;SDS011;1368;49.484;11.112;2023-08-20T12:17:56;8.63;;;7.13;;
2720;SDS011;1368;49.484;11.112;2023-08-20T12:20:26;7.90;;;6.50;;
2720;SDS011;1368;49.484;11.112;2023-08-20T12:22:54;10.80;;;6.53;;
2720;SDS011;1368;49.484;11.112;2023-08-20T12:25:20;15.30;;;6.20;;
2720;SDS011;1368;49.484;11.112;2023-08-20T12:27:45;11.53;;;7.03;;
2720;SDS011;1368;49.484;11.112;2023-08-20T12:30:11;8.37;;;6.33;;
2720;SDS011;1368;49.484;11.112;2023-08-20T12:32:37;7.00;;;6.30;;
2720;SDS011;1368;49.484;11.112;2023-08-20T12:35:03;12.27;;;6.57;;
2720;SDS011;1368;49.484;11.112;2023-08-20T12:37:28;7.20;;;5.97;;
2720;SDS011;1368;49.484;11.112;2023-08-20T12:39:54;9.27;;;6.90;;
2720;SDS011;1368;49.484;11.112;2023-08-20T12:42:20;8.67;;;6.70;;
2720;SDS011;1368;49.484;11.112;2023-08-20T12:44:45;10.70;;;6.80;;
2720;SDS011;1368;49.484;11.112;2023-08-20T12:47:11;10.27;;;7.30;;
2720;SDS011;1368;49.484;11.112;2023-08-20T12:49:36;8.53;;;6.53;;
2720;SDS011;1368;49.484;11.112;2023-08-20T12:52:02;9.70;;;7.77;;
2720;SDS011;1368;49.484;11.112;2023-08-20T12:54:28;12.37;;;6.80;;
2720;SDS011;1368;49.484;11.112;2023-08-20T12:56:54;11.20;;;6.73;;
2720;SDS011;1368;49.484;11.112;2023-08-20T12:59:20;9.40;;;6.77;;
2720;SDS011;1368;49.484;11.112;2023-08-20T13:01:45;7.97;;;6.73;;
2720;SDS011;1368;49.484;11.112;2023-08-20T13:04:12;10.07;;;6.90;;
2720;SDS011;1368;49.484;11.112;2023-08-20T13:06:38;14.47;;;7.30;;
2720;SDS011;1368;49.484;11.112;2023-08-20T13:09:04;17.20;;;7.40;;
2720;SDS011;1368;49.484;11.112;2023-08-20T13:11:31;9.30;;;6.60;;
2720;SDS011;1368;49.484;11.112;2023-08-20T13:13:57;12.00;;;7.17;;
2720;SDS011;1368;49.484;11.112;2023-08-20T13:16:23;11.97;;;7.70;;
2720;SDS011;1368;49.484;11.112;2023-08-20T13:18:49;10.40;;;7.30;;
2720;SDS011;1368;49.484;11.112;2023-08-20T13:21:15;13.23;;;7.10;;
2720;SDS011;1368;49.484;11.112;2023-08-20T13:23:40;10.37;;;7.03;;
2720;SDS011;1368;49.484;11.112;2023-08-20T13:26:06;9.10;;;7.17;;
2720;SDS011;1368;49.484;11.112;2023-08-20T13:28:32;9.17;;;6.60;;
2720;SDS011;1368;49.484;11.112;2023-08-20T13:30:58;7.63;;;6.83;;
2720;SDS011;1368;49.484;11.112;2023-08-20T13:33:23;11.40;;;7.43;;
2720;SDS011;1368;49.484;11.112;2023-08-20T13:35:49;9.03;;;6.80;;
2720;SDS011;1368;49.484;11.112;2023-08-20T13:38:14;7.07;;;6.00;;
2720;SDS011;1368;49.484;11.112;2023-08-20T13:40:40;8.43;;;6.03;;
2720;SDS011;1368;49.484;11.112;2023-08-20T13:43:05;12.30;;;7.00;;
2720;SDS011;1368;49.484;11.112;2023-08-20T13:45:31;10.73;;;6.77;;
2720;SDS011;1368;49.484;11.112;2023-08-20T13:47:57;9.43;;;7.37;;
2720;SDS011;1368;49.484;11.112;2023-08-20T13:50:22;8.73;;;6.60;;
2720;SDS011;1368;49.484;11.112;2023-08-20T13:52:48;15.67;;;7.57;;
2720;SDS011;1368;49.484;11.112;2023-08-20T13:55:14;8.97;;;6.80;;
2720;SDS011;1368;49.484;11.112;2023-08-20T13:57:40;9.57;;;6.87;;
2720;SDS011;1368;49.484;11.112;2023-08-20T14:00:06;11.77;;;6.43;;
2720;SDS011;1368;49.484;11.112;2023-08-20T14:02:37;10.40;;;6.87;;
2720;SDS011;1368;49.484;11.112;2023-08-20T14:05:03;8.57;;;6.03;;
2720;SDS011;1368;49.484;11.112;2023-08-20T14:07:29;12.50;;;7.50;;
2720;SDS011;1368;49.484;11.112;2023-08-20T14:09:55;8.77;;;7.10;;
2720;SDS011;1368;49.484;11.112;2023-08-20T14:12:20;8.20;;;6.53;;
2720;SDS011;1368;49.484;11.112;2023-08-20T14:14:46;9.90;;;6.50;;
2720;SDS011;1368;49.484;11.112;2023-08-20T14:17:12;8.37;;;5.87;;
2720;SDS011;1368;49.484;11.112;2023-08-20T14:19:37;8.83;;;6.20;;
2720;SDS011;1368;49.484;11.112;2023-08-20T14:22:03;8.50;;;6.60;;
2720;SDS011;1368;49.484;11.112;2023-08-20T14:24:28;9.00;;;6.50;;
2720;SDS011;1368;49.484;11.112;2023-08-20T14:26:54;10.37;;;7.00;;
2720;SDS011;1368;49.484;11.112;2023-08-20T14:29:19;8.20;;;6.00;;
2720;SDS011;1368;49.484;11.112;2023-08-20T14:31:45;8.07;;;5.63;;
2720;SDS011;1368;49.484;11.112;2023-08-20T14:34:11;8.40;;;5.57;;
2720;SDS011;1368;49.484;11.112;2023-08-20T14:36:36;7.20;;;6.20;;
2720;SDS011;1368;49.484;11.112;2023-08-20T14:39:02;7.37;;;6.00;;
2720;SDS011;1368;49.484;11.112;2023-08-20T14:41:30;10.73;;;6.73;;
2720;SDS011;1368;49.484;11.112;2023-08-20T14:43:55;9.97;;;5.80;;
2720;SDS011;1368;49.484;11.112;2023-08-20T14:46:21;7.63;;;6.37;;
2720;SDS011;1368;49.484;11.112;2023-08-20T14:48:46;9.40;;;6.60;;
2720;SDS011;1368;49.484;11.112;2023-08-20T14:51:12;10.30;;;5.30;;
2720;SDS011;1368;49.484;11.112;2023-08-20T14:53:38;12.90;;;6.70;;
2720;SDS011;1368;49.484;11.112;2023-08-20T14:56:04;8.47;;;5.80;;
2720;SDS011;1368;49.484;11.112;2023-08-20T14:58:29;14.60;;;6.77;;
2720;SDS011;1368;49.484;11.112;2023-08-20T15:00:55;10.90;;;6.67;;